createdAt,value
2023-08-29T00:01:42.513Z,52.18
2023-08-29T00:04:10.319Z,54.45
2023-08-29T00:06:37.392Z,54.11
2023-08-29T00:09:05.379Z,56.40
2023-08-29T00:11:32.565Z,57.37
2023-08-29T00:14:00.450Z,57.49
2023-08-29T00:16:27.743Z,55.20
2023-08-29T00:18:54.802Z,53.23
2023-08-29T00:21:21.865Z,54.29
2023-08-29T00:23:49.717Z,53.34
2023-08-29T00:26:16.843Z,53.27
2023-08-29T00:28:45.571Z,53.25
2023-08-29T00:31:12.621Z,50.97
2023-08-29T00:33:39.917Z,50.20
2023-08-29T00:38:34.510Z,49.93
2023-08-29T00:41:01.743Z,50.55
2023-08-29T00:43:30.637Z,51.25
2023-08-29T00:45:59.123Z,52.81
2023-08-29T00:48:26.930Z,52.89
2023-08-29T00:50:56.322Z,53.07
2023-08-29T00:53:25.361Z,53.42
2023-08-29T00:55:52.547Z,53.62
2023-08-29T00:58:20.522Z,54.00
2023-08-29T01:00:47.895Z,53.53
2023-08-29T01:03:15.089Z,52.33
2023-08-29T01:05:42.333Z,52.65
2023-08-29T01:08:09.460Z,53.41
2023-08-29T01:11:22.740Z,52.82
2023-08-29T01:14:24.759Z,52.15
2023-08-29T01:17:14.367Z,52.07
2023-08-29T01:19:43.305Z,51.95
2023-08-29T01:22:41.252Z,50.83
2023-08-29T01:25:26.408Z,51.76
2023-08-29T01:27:54.929Z,51.17
2023-08-29T01:30:23.516Z,52.16
2023-08-29T01:32:51.664Z,51.93
2023-08-29T01:35:18.904Z,51.13
2023-08-29T01:37:45.980Z,50.41
2023-08-29T01:40:13.030Z,50.07
2023-08-29T01:42:42.604Z,49.47
2023-08-29T01:45:10.196Z,49.84
2023-08-29T01:47:37.347Z,49.32
2023-08-29T01:50:06.174Z,49.35
2023-08-29T01:52:33.646Z,49.14
2023-08-29T01:55:00.879Z,48.77
2023-08-29T01:57:29.206Z,48.50
2023-08-29T01:59:58.363Z,48.33
2023-08-29T02:02:25.997Z,47.95
2023-08-29T02:04:53.091Z,48.14
2023-08-29T02:07:20.197Z,47.60
2023-08-29T02:09:47.268Z,47.22
2023-08-29T02:12:14.367Z,47.62
2023-08-29T02:14:42.225Z,47.25
2023-08-29T02:17:09.452Z,47.36
2023-08-29T02:19:36.614Z,47.06
2023-08-29T02:22:03.688Z,47.44
2023-08-29T02:24:32.238Z,48.01
2023-08-29T02:26:59.369Z,49.04
2023-08-29T02:29:26.419Z,49.54
2023-08-29T02:31:53.499Z,50.07
2023-08-29T02:34:20.615Z,50.36
2023-08-29T02:36:47.760Z,51.01
2023-08-29T02:39:14.790Z,51.22
2023-08-29T02:41:41.902Z,51.18
2023-08-29T02:44:09.333Z,51.35
2023-08-29T02:46:36.463Z,51.82
2023-08-29T02:49:03.493Z,52.23
2023-08-29T02:51:30.643Z,52.11
2023-08-29T02:53:57.661Z,51.96
2023-08-29T02:56:24.652Z,51.90
2023-08-29T02:58:52.255Z,52.05
2023-08-29T03:01:19.368Z,52.71
2023-08-29T03:03:46.503Z,52.83
2023-08-29T03:06:13.804Z,53.01
2023-08-29T03:08:40.963Z,52.96
2023-08-29T03:11:08.127Z,53.11
2023-08-29T03:13:36.500Z,53.07
2023-08-29T03:16:12.186Z,52.79
2023-08-29T03:18:41.074Z,53.32
2023-08-29T03:21:08.768Z,53.03
2023-08-29T03:23:36.672Z,53.54
2023-08-29T03:26:11.056Z,53.39
2023-08-29T03:28:39.156Z,53.54
2023-08-29T03:31:14.034Z,53.65
2023-08-29T03:33:42.338Z,53.71
2023-08-29T03:36:10.308Z,53.49
2023-08-29T03:38:39.274Z,53.97
2023-08-29T03:41:07.375Z,54.01
2023-08-29T03:43:36.037Z,54.12
2023-08-29T03:46:07.442Z,53.61
2023-08-29T03:48:38.798Z,53.83
2023-08-29T03:51:08.866Z,53.74
2023-08-29T03:53:39.485Z,53.83
2023-08-29T03:56:10.210Z,53.64
2023-08-29T03:58:37.465Z,54.27
2023-08-29T04:01:05.752Z,54.11
2023-08-29T04:03:33.345Z,54.37
2023-08-29T04:06:01.693Z,54.25
2023-08-29T04:08:28.850Z,54.37
2023-08-29T04:10:58.095Z,54.42
2023-08-29T04:13:25.546Z,54.34
2023-08-29T04:15:52.662Z,54.35
2023-08-29T04:18:19.843Z,54.24
2023-08-29T04:20:47.167Z,53.81
2023-08-29T04:23:14.334Z,53.69
2023-08-29T04:25:41.386Z,52.96
2023-08-29T04:28:08.694Z,52.20
2023-08-29T04:30:36.809Z,52.31
2023-08-29T04:33:04.567Z,51.86
2023-08-29T04:35:31.680Z,51.43
2023-08-29T04:37:59.530Z,51.34
2023-08-29T04:40:28.110Z,50.67
2023-08-29T04:42:55.188Z,50.67
2023-08-29T04:45:22.299Z,50.99
2023-08-29T04:47:49.387Z,50.11
2023-08-29T04:50:16.638Z,49.36
2023-08-29T04:52:43.876Z,49.13
2023-08-29T04:55:11.738Z,49.40
2023-08-29T04:57:39.359Z,48.78
2023-08-29T05:00:10.366Z,49.22
2023-08-29T05:02:37.502Z,48.21
2023-08-29T05:05:04.982Z,48.22
2023-08-29T05:07:32.176Z,48.23
2023-08-29T05:09:59.587Z,48.31
2023-08-29T05:12:27.363Z,48.59
2023-08-29T05:14:55.849Z,47.92
2023-08-29T05:17:22.927Z,46.47
2023-08-29T05:19:50.780Z,45.98
2023-08-29T05:22:18.359Z,47.41
2023-08-29T05:24:45.547Z,47.92
2023-08-29T05:27:12.845Z,45.43
2023-08-29T05:29:40.269Z,44.20
2023-08-29T05:32:07.490Z,43.67
2023-08-29T05:34:34.615Z,45.01
2023-08-29T05:37:01.662Z,44.44
2023-08-29T05:39:28.716Z,44.01
2023-08-29T05:41:55.737Z,43.08
2023-08-29T05:44:22.800Z,42.46
2023-08-29T05:46:49.970Z,42.31
2023-08-29T05:49:17.043Z,43.10
2023-08-29T05:51:44.038Z,42.72
2023-08-29T05:54:11.328Z,41.73
2023-08-29T05:56:39.222Z,42.39
2023-08-29T05:59:06.397Z,41.88
2023-08-29T06:01:34.670Z,40.90
2023-08-29T06:04:01.881Z,41.54
2023-08-29T06:06:29.036Z,41.60
2023-08-29T06:08:56.121Z,41.07
2023-08-29T06:11:23.352Z,41.72
2023-08-29T06:13:52.552Z,41.19
2023-08-29T06:16:20.007Z,41.40
2023-08-29T06:18:48.775Z,41.32
2023-08-29T06:21:15.922Z,41.03
2023-08-29T06:23:43.429Z,41.04
2023-08-29T06:26:10.606Z,40.30
2023-08-29T06:28:38.831Z,40.35
2023-08-29T06:31:08.608Z,39.76
2023-08-29T06:33:37.072Z,39.76
2023-08-29T06:36:04.440Z,39.68
2023-08-29T06:38:33.494Z,39.67
2023-08-29T06:41:04.259Z,38.76
2023-08-29T06:43:31.689Z,39.36
2023-08-29T06:45:58.986Z,39.13
2023-08-29T06:48:26.249Z,38.56
2023-08-29T06:50:53.362Z,39.39
2023-08-29T06:53:20.484Z,38.45
2023-08-29T06:55:48.281Z,38.04
2023-08-29T06:58:15.379Z,37.12
2023-08-29T07:00:42.654Z,36.69
2023-08-29T07:03:09.875Z,36.96
2023-08-29T07:05:37.204Z,37.23
2023-08-29T07:08:05.734Z,37.22
2023-08-29T07:10:33.224Z,36.84
2023-08-29T07:13:00.349Z,36.36
2023-08-29T07:15:27.560Z,36.36
2023-08-29T07:17:55.290Z,36.21
2023-08-29T07:20:22.693Z,34.84
2023-08-29T07:22:49.891Z,34.33
2023-08-29T07:25:21.207Z,34.64
2023-08-29T07:27:48.428Z,34.92
2023-08-29T07:30:16.386Z,35.31
2023-08-29T07:32:44.878Z,35.23
2023-08-29T07:35:12.084Z,35.08
2023-08-29T07:37:39.367Z,34.32
2023-08-29T07:40:07.083Z,34.96
2023-08-29T07:42:34.335Z,35.47
2023-08-29T07:45:01.520Z,34.95
2023-08-29T07:47:28.683Z,35.29
2023-08-29T07:49:55.805Z,35.03
2023-08-29T07:52:22.916Z,35.43
2023-08-29T07:54:50.040Z,35.35
2023-08-29T07:57:17.179Z,35.94
2023-08-29T07:59:44.401Z,34.75
2023-08-29T08:02:11.562Z,34.54
2023-08-29T08:04:38.709Z,34.97
2023-08-29T08:07:06.832Z,33.69
2023-08-29T08:09:34.496Z,33.60
2023-08-29T08:12:03.451Z,33.65
2023-08-29T08:14:30.630Z,33.81
2023-08-29T08:16:57.827Z,33.40
2023-08-29T08:19:25.638Z,33.26
2023-08-29T08:21:52.954Z,32.82
2023-08-29T08:24:20.085Z,33.00
2023-08-29T08:26:47.382Z,32.43
2023-08-29T08:29:14.605Z,32.66
2023-08-29T08:31:41.834Z,32.87
2023-08-29T08:34:08.927Z,32.92
2023-08-29T08:36:36.128Z,32.91
2023-08-29T08:39:05.086Z,32.49
2023-08-29T08:41:32.991Z,32.18
2023-08-29T08:44:05.535Z,31.92
2023-08-29T08:46:34.709Z,32.32
2023-08-29T08:49:03.289Z,32.25
2023-08-29T08:51:32.045Z,32.67
2023-08-29T08:53:59.554Z,33.10
2023-08-29T08:56:28.276Z,32.72
2023-08-29T08:58:55.876Z,32.31
2023-08-29T09:01:23.065Z,32.65
2023-08-29T09:03:51.044Z,33.29
2023-08-29T09:06:18.471Z,32.56
2023-08-29T09:08:45.949Z,32.33
2023-08-29T09:11:13.156Z,31.97
2023-08-29T09:13:47.799Z,31.53
2023-08-29T09:16:15.530Z,32.00
2023-08-29T09:18:46.338Z,32.05
2023-08-29T09:21:22.883Z,31.92
2023-08-29T09:23:51.591Z,31.47
2023-08-29T09:26:19.486Z,31.95
2023-08-29T09:28:47.884Z,31.74
2023-08-29T09:31:17.590Z,31.50
2023-08-29T09:33:44.880Z,31.77
2023-08-29T09:36:12.184Z,31.69
2023-08-29T09:38:42.036Z,30.86
2023-08-29T09:41:18.567Z,31.00
2023-08-29T09:43:49.354Z,30.92
2023-08-29T10:18:01.167Z,33.21
2023-08-29T10:20:29.632Z,32.69
2023-08-29T10:22:57.131Z,31.73
2023-08-29T10:25:25.284Z,31.47
2023-08-29T10:27:52.612Z,31.18
2023-08-29T10:30:19.927Z,30.96
2023-08-29T10:32:47.768Z,31.23
2023-08-29T10:35:24.044Z,30.71
2023-08-29T10:37:55.589Z,31.02
2023-08-29T10:40:23.088Z,29.83
2023-08-29T10:42:55.767Z,30.07
2023-08-29T10:45:42.359Z,30.41
2023-08-29T10:48:10.151Z,30.24
2023-08-29T10:50:38.642Z,30.29
2023-08-29T10:53:06.099Z,30.79
2023-08-29T10:55:36.014Z,30.76
2023-08-29T10:58:34.096Z,31.24
2023-08-29T11:01:01.250Z,30.77
2023-08-29T11:03:53.815Z,30.49
2023-08-29T11:06:25.840Z,30.96
2023-08-29T11:09:18.225Z,30.33
2023-08-29T11:11:45.438Z,30.37
2023-08-29T11:14:12.788Z,31.01
2023-08-29T11:17:11.337Z,30.16
2023-08-29T11:19:40.077Z,30.66
2023-08-29T11:22:09.513Z,30.73
2023-08-29T11:24:36.775Z,30.54
2023-08-29T11:27:03.967Z,30.39
2023-08-29T11:29:37.970Z,30.10
2023-08-29T11:32:05.486Z,30.83
2023-08-29T11:34:36.589Z,31.28
2023-08-29T11:37:03.882Z,31.26
2023-08-29T11:39:31.020Z,30.87
2023-08-29T11:42:17.247Z,30.56
2023-08-29T11:45:15.707Z,30.65
2023-08-29T11:47:32.806Z,30.25
2023-08-29T11:50:00.064Z,31.20
2023-08-29T11:52:27.253Z,32.10
2023-08-29T11:54:55.247Z,32.30
2023-08-29T11:57:22.462Z,32.18
2023-08-29T11:59:52.318Z,32.24
2023-08-29T12:02:22.552Z,32.02
2023-08-29T12:04:57.924Z,32.39
2023-08-29T12:07:31.403Z,32.08
2023-08-29T12:10:07.803Z,31.45
2023-08-29T12:12:39.685Z,31.17
2023-08-29T12:15:12.003Z,30.87
2023-08-29T12:17:41.888Z,31.19
2023-08-29T12:20:14.963Z,31.64
2023-08-29T12:22:47.882Z,32.46
2023-08-29T12:25:15.595Z,31.77
2023-08-29T12:27:45.513Z,31.98
2023-08-29T12:30:15.754Z,32.44
2023-08-29T12:32:48.530Z,32.56
2023-08-29T12:35:18.349Z,32.37
2023-08-29T12:37:45.710Z,32.74
2023-08-29T12:40:14.192Z,32.43
2023-08-29T12:42:43.245Z,32.85
2023-08-29T12:45:11.199Z,32.64
2023-08-29T12:47:39.397Z,33.45
2023-08-29T12:50:07.635Z,33.81
2023-08-29T12:52:34.807Z,34.71
2023-08-29T12:55:01.925Z,34.06
2023-08-29T12:57:29.063Z,33.80
2023-08-29T12:59:56.211Z,34.28
2023-08-29T13:02:23.401Z,34.03
2023-08-29T13:04:50.684Z,34.13
2023-08-29T13:07:17.821Z,34.78
2023-08-29T13:09:46.237Z,34.25
2023-08-29T13:12:13.412Z,35.57
2023-08-29T13:14:40.683Z,34.97
2023-08-29T13:17:11.755Z,34.54
2023-08-29T13:19:40.619Z,35.02
2023-08-29T13:22:08.013Z,35.60
2023-08-29T13:24:37.209Z,35.74
2023-08-29T13:27:05.335Z,35.85
2023-08-29T13:29:32.764Z,35.75
2023-08-29T13:32:00.347Z,36.23
2023-08-29T13:34:28.037Z,35.27
2023-08-29T13:36:55.138Z,35.42
2023-08-29T13:39:22.450Z,35.43
2023-08-29T13:41:49.778Z,36.13
2023-08-29T13:44:17.975Z,35.90
2023-08-29T13:46:46.849Z,35.49
2023-08-29T13:49:14.378Z,36.00
2023-08-29T13:51:41.682Z,35.88
2023-08-29T13:54:09.054Z,36.31
2023-08-29T13:56:37.002Z,36.94
2023-08-29T13:59:04.757Z,37.66
2023-08-29T14:01:32.117Z,38.45
2023-08-29T14:03:59.446Z,37.58
2023-08-29T14:06:26.695Z,37.46
2023-08-29T14:08:53.860Z,37.70
2023-08-29T14:11:20.951Z,38.39
2023-08-29T14:13:48.334Z,38.78
2023-08-29T14:16:15.456Z,38.86
2023-08-29T14:18:45.020Z,37.77
2023-08-29T14:21:12.409Z,38.02
2023-08-29T14:23:39.562Z,37.84
2023-08-29T14:26:10.871Z,37.91
2023-08-29T14:28:38.931Z,37.06
2023-08-29T14:31:06.184Z,36.41
2023-08-29T14:33:33.439Z,36.98
2023-08-29T14:36:05.060Z,37.19
2023-08-29T14:38:32.752Z,37.62
2023-08-29T14:41:12.707Z,37.76
2023-08-29T14:43:40.987Z,37.93
2023-08-29T14:46:08.894Z,37.55
2023-08-29T14:48:37.157Z,36.85
2023-08-29T14:51:07.901Z,36.86
2023-08-29T14:53:35.691Z,37.05
2023-08-29T14:56:03.856Z,37.36
2023-08-29T14:58:33.571Z,37.38
2023-08-29T15:01:01.133Z,37.29
2023-08-29T15:03:28.478Z,37.64
2023-08-29T15:05:59.317Z,37.65
2023-08-29T15:08:27.447Z,37.75
2023-08-29T15:10:55.646Z,37.64
2023-08-29T15:13:23.601Z,37.99
2023-08-29T15:15:50.787Z,38.01
2023-08-29T15:18:19.281Z,37.98
2023-08-29T15:20:46.616Z,38.44
2023-08-29T15:23:16.898Z,38.50
2023-08-29T15:25:44.581Z,38.56
2023-08-29T15:28:12.298Z,38.79
2023-08-29T15:30:40.412Z,38.69
2023-08-29T15:33:07.918Z,38.87
2023-08-29T15:35:35.084Z,38.63
2023-08-29T15:38:02.300Z,38.91
2023-08-29T15:40:29.503Z,39.33
2023-08-29T15:42:56.565Z,39.16
2023-08-29T15:45:23.713Z,39.31
2023-08-29T15:47:51.022Z,38.94
2023-08-29T15:50:18.222Z,38.82
2023-08-29T15:52:45.324Z,38.52
2023-08-29T15:55:12.533Z,38.80
2023-08-29T15:57:39.678Z,39.04
2023-08-29T16:00:13.931Z,39.70
2023-08-29T16:02:47.973Z,40.17
2023-08-29T16:05:15.248Z,40.22
2023-08-29T16:07:45.635Z,40.53
2023-08-29T16:10:15.395Z,40.94
2023-08-29T16:12:43.846Z,41.23
2023-08-29T16:15:11.765Z,41.62
2023-08-29T16:17:39.713Z,41.38
2023-08-29T16:20:09.631Z,41.64
2023-08-29T16:22:40.135Z,41.87
2023-08-29T16:25:07.938Z,41.98
2023-08-29T16:27:38.883Z,42.07
2023-08-29T16:30:08.576Z,41.92
2023-08-29T16:32:36.716Z,42.40
2023-08-29T16:35:04.886Z,42.26
2023-08-29T16:37:32.081Z,42.53
2023-08-29T16:39:59.378Z,42.92
2023-08-29T16:42:26.818Z,42.75
2023-08-29T16:44:54.129Z,42.44
2023-08-29T16:47:21.424Z,42.49
2023-08-29T16:49:48.892Z,43.12
2023-08-29T16:52:16.092Z,43.13
2023-08-29T16:54:43.356Z,43.36
2023-08-29T16:57:10.640Z,44.08
2023-08-29T17:00:02.128Z,43.80
2023-08-29T17:02:29.655Z,44.66
2023-08-29T17:04:56.993Z,44.11
2023-08-29T17:07:24.192Z,42.84
2023-08-29T17:09:51.387Z,41.80
2023-08-29T17:12:23.029Z,40.80
2023-08-29T17:14:51.365Z,40.95
2023-08-29T17:17:19.905Z,41.17
2023-08-29T17:19:47.642Z,40.71
2023-08-29T17:22:14.872Z,41.89
2023-08-29T17:24:42.348Z,41.33
2023-08-29T17:27:09.629Z,41.30
2023-08-29T17:29:36.835Z,41.61
2023-08-29T17:32:04.710Z,41.48
2023-08-29T17:34:31.967Z,41.68
2023-08-29T17:36:59.697Z,41.74
2023-08-29T17:39:27.571Z,41.13
2023-08-29T17:41:55.526Z,41.34
2023-08-29T17:44:22.756Z,41.11
2023-08-29T17:46:50.001Z,41.42
2023-08-29T17:49:19.437Z,42.12
2023-08-29T17:51:47.454Z,42.66
2023-08-29T17:54:14.725Z,42.70
2023-08-29T17:56:41.989Z,43.55
2023-08-29T17:59:09.103Z,43.33
2023-08-29T18:01:36.263Z,42.91
2023-08-29T18:04:08.568Z,42.79
2023-08-29T18:06:36.525Z,42.93
2023-08-29T18:09:03.966Z,43.10
2023-08-29T18:11:31.471Z,43.50
2023-08-29T18:13:58.618Z,43.49
2023-08-29T18:16:25.792Z,43.76
2023-08-29T18:18:53.191Z,45.06
2023-08-29T18:21:20.324Z,45.47
2023-08-29T18:23:47.463Z,45.72
2023-08-29T18:26:14.691Z,45.43
2023-08-29T18:28:41.941Z,45.49
2023-08-29T18:31:09.174Z,46.31
2023-08-29T18:33:36.860Z,45.62
2023-08-29T18:36:04.210Z,45.61
2023-08-29T18:38:31.629Z,45.74
2023-08-29T18:40:59.253Z,45.55
2023-08-29T18:43:26.340Z,45.54
2023-08-29T18:45:53.510Z,45.84
2023-08-29T18:48:21.671Z,46.08
2023-08-29T18:50:48.845Z,46.05
2023-08-29T18:53:16.044Z,46.43
2023-08-29T18:55:45.296Z,46.69
2023-08-29T18:58:13.314Z,47.62
2023-08-29T19:00:40.507Z,47.44
2023-08-29T19:03:10.908Z,47.98
2023-08-29T19:05:40.877Z,47.43
2023-08-29T19:08:08.480Z,48.56
2023-08-29T19:10:39.847Z,48.36
2023-08-29T19:13:07.087Z,48.90
2023-08-29T19:15:34.385Z,49.06
2023-08-29T19:18:04.497Z,49.21
2023-08-29T19:20:35.332Z,49.77
2023-08-29T19:23:02.560Z,50.08
2023-08-29T19:25:29.666Z,50.56
2023-08-29T19:27:58.351Z,50.10
2023-08-29T19:30:25.541Z,50.63
2023-08-29T19:32:54.178Z,50.47
2023-08-29T19:35:21.875Z,50.69
2023-08-29T19:37:49.999Z,50.53
2023-08-29T19:40:17.222Z,51.42
2023-08-29T19:42:44.407Z,51.15
2023-08-29T19:45:11.646Z,51.59
2023-08-29T19:47:38.789Z,51.82
2023-08-29T19:50:06.342Z,52.64
2023-08-29T19:52:33.514Z,52.59
2023-08-29T19:55:01.237Z,52.75
2023-08-29T19:57:28.417Z,52.85
2023-08-29T19:59:55.480Z,52.78
2023-08-29T20:02:22.563Z,53.49
2023-08-29T20:04:49.713Z,53.83
2023-08-29T20:07:16.798Z,53.59
2023-08-29T20:09:43.948Z,53.95
2023-08-29T20:12:11.073Z,54.83
2023-08-29T20:14:38.345Z,55.86
2023-08-29T20:17:06.538Z,56.33
2023-08-29T20:19:34.441Z,57.41
2023-08-29T20:22:01.620Z,57.31
2023-08-29T20:24:28.724Z,57.09
2023-08-29T20:26:55.927Z,58.21
2023-08-29T20:29:23.162Z,58.57
2023-08-29T20:31:50.474Z,58.92
2023-08-29T20:34:17.988Z,59.33
2023-08-29T20:36:49.046Z,60.02
2023-08-29T20:39:16.727Z,59.63
2023-08-29T20:41:43.824Z,59.50
2023-08-29T20:44:11.132Z,58.99
2023-08-29T20:46:38.301Z,59.07
2023-08-29T20:49:05.738Z,59.85
2023-08-29T20:51:34.727Z,60.12
2023-08-29T20:54:02.009Z,61.51
2023-08-29T20:56:29.305Z,62.85
2023-08-29T20:58:56.461Z,62.54
2023-08-29T21:01:24.922Z,63.54
2023-08-29T21:03:52.473Z,64.82
2023-08-29T21:06:19.861Z,66.21
2023-08-29T21:08:47.066Z,66.39
2023-08-29T21:11:14.163Z,66.69
2023-08-29T21:13:41.348Z,65.24
2023-08-29T21:16:08.546Z,65.07
2023-08-29T21:18:35.602Z,64.71
2023-08-29T21:21:04.043Z,65.46
2023-08-29T21:23:31.248Z,66.03
2023-08-29T21:25:58.799Z,66.38
2023-08-29T21:28:27.657Z,65.94
2023-08-29T21:30:55.952Z,66.38
2023-08-29T21:33:24.285Z,66.06
2023-08-29T21:35:52.236Z,66.03
2023-08-29T21:38:20.080Z,66.19
2023-08-29T21:40:47.524Z,66.91
2023-08-29T21:43:22.549Z,67.28
2023-08-29T21:45:55.104Z,68.49
2023-08-29T21:48:24.381Z,67.83
2023-08-29T21:50:53.516Z,68.97
2023-08-29T21:53:20.961Z,68.49
2023-08-29T21:55:48.095Z,68.96
2023-08-29T21:58:20.191Z,70.57
2023-08-29T22:00:55.054Z,71.60
2023-08-29T22:03:23.987Z,72.00
2023-08-29T22:05:51.361Z,71.90
2023-08-29T22:08:20.222Z,73.71
2023-08-29T22:10:48.246Z,74.73
2023-08-29T22:13:15.745Z,73.75
2023-08-29T22:15:42.985Z,74.48
2023-08-29T22:18:10.662Z,75.57
2023-08-29T22:20:38.611Z,74.45
2023-08-29T22:23:05.739Z,75.82
2023-08-29T22:25:32.929Z,75.58
2023-08-29T22:28:00.091Z,74.58
2023-08-29T22:30:27.600Z,74.04
2023-08-29T22:32:54.834Z,74.28
2023-08-29T22:35:22.220Z,74.24
2023-08-29T22:37:49.428Z,74.04
2023-08-29T22:40:17.084Z,74.53
2023-08-29T22:42:45.621Z,74.84
2023-08-29T22:45:14.721Z,74.27
2023-08-29T22:47:42.413Z,74.64
2023-08-29T22:50:09.820Z,74.25
2023-08-29T22:52:40.037Z,74.65
2023-08-29T22:55:07.799Z,74.29
2023-08-29T22:57:35.170Z,74.01
2023-08-29T23:00:02.392Z,74.39
2023-08-29T23:02:29.616Z,75.15
2023-08-29T23:04:56.755Z,75.55
2023-08-29T23:07:23.947Z,77.34
2023-08-29T23:09:51.068Z,77.41
2023-08-29T23:12:18.251Z,80.10
2023-08-29T23:14:45.348Z,81.16
2023-08-29T23:17:13.405Z,81.40
2023-08-29T23:19:45.453Z,82.15
2023-08-29T23:22:12.729Z,84.26
2023-08-29T23:24:39.954Z,82.94
2023-08-29T23:27:07.466Z,83.83
2023-08-29T23:29:37.487Z,83.77
2023-08-29T23:32:05.783Z,84.65
2023-08-29T23:34:33.143Z,85.97
2023-08-29T23:37:00.327Z,85.96
2023-08-29T23:39:27.444Z,85.99
2023-08-29T23:41:54.640Z,84.71
2023-08-29T23:44:21.793Z,84.13
2023-08-29T23:46:49.076Z,83.89
2023-08-29T23:49:16.237Z,83.60
2023-08-29T23:51:43.353Z,83.20
2023-08-29T23:54:10.513Z,83.91
2023-08-29T23:56:37.674Z,83.00
2023-08-29T23:59:05.320Z,84.23
